sensor_id;sensor_type;location;lat;lon;timestamp;P1;durP1;ratioP1;P2;durP2;ratioP2
77310;SDS011;66371;52.714;5.074;2023-06-19T00:02:14;11.32;;;9.30;;
77310;SDS011;66371;52.714;5.074;2023-06-19T00:04:39;9.95;;;8.95;;
77310;SDS011;66371;52.714;5.074;2023-06-19T00:07:05;10.82;;;9.55;;
77310;SDS011;66371;52.714;5.074;2023-06-19T00:09:31;11.27;;;8.60;;
77310;SDS011;66371;52.714;5.074;2023-06-19T00:11:57;10.90;;;9.80;;
77310;SDS011;66371;52.714;5.074;2023-06-19T00:14:24;10.10;;;8.88;;
77310;SDS011;66371;52.714;5.074;2023-06-19T00:16:50;10.60;;;9.50;;
77310;SDS011;66371;52.714;5.074;2023-06-19T00:19:16;10.65;;;9.45;;
77310;SDS011;66371;52.714;5.074;2023-06-19T00:21:42;9.73;;;8.73;;
77310;SDS011;66371;52.714;5.074;2023-06-19T00:24:08;11.02;;;9.95;;
77310;SDS011;66371;52.714;5.074;2023-06-19T00:26:34;10.48;;;9.10;;
77310;SDS011;66371;52.714;5.074;2023-06-19T00:29:12;11.07;;;9.90;;
77310;SDS011;66371;52.714;5.074;2023-06-19T00:31:37;11.05;;;9.73;;
77310;SDS011;66371;52.714;5.074;2023-06-19T00:34:05;10.05;;;8.65;;
77310;SDS011;66371;52.714;5.074;2023-06-19T00:36:30;10.30;;;8.68;;
77310;SDS011;66371;52.714;5.074;2023-06-19T00:38:56;10.90;;;9.88;;
77310;SDS011;66371;52.714;5.074;2023-06-19T00:41:23;11.15;;;8.55;;
77310;SDS011;66371;52.714;5.074;2023-06-19T00:43:54;12.40;;;10.07;;
77310;SDS011;66371;52.714;5.074;2023-06-19T00:46:19;10.45;;;8.48;;
77310;SDS011;66371;52.714;5.074;2023-06-19T00:48:45;10.77;;;8.38;;
77310;SDS011;66371;52.714;5.074;2023-06-19T00:51:10;10.82;;;9.73;;
77310;SDS011;66371;52.714;5.074;2023-06-19T00:53:36;11.55;;;9.52;;
77310;SDS011;66371;52.714;5.074;2023-06-19T00:56:02;11.88;;;10.15;;
77310;SDS011;66371;52.714;5.074;2023-06-19T00:58:28;11.23;;;10.13;;
77310;SDS011;66371;52.714;5.074;2023-06-19T01:03:29;10.70;;;8.75;;
77310;SDS011;66371;52.714;5.074;2023-06-19T01:05:54;10.00;;;9.00;;
77310;SDS011;66371;52.714;5.074;2023-06-19T01:08:36;11.05;;;9.77;;
77310;SDS011;66371;52.714;5.074;2023-06-19T01:11:08;10.50;;;9.35;;
77310;SDS011;66371;52.714;5.074;2023-06-19T01:13:37;10.13;;;9.02;;
77310;SDS011;66371;52.714;5.074;2023-06-19T01:16:06;12.40;;;9.75;;
77310;SDS011;66371;52.714;5.074;2023-06-19T01:18:32;10.10;;;8.27;;
77310;SDS011;66371;52.714;5.074;2023-06-19T01:21:14;10.90;;;8.77;;
77310;SDS011;66371;52.714;5.074;2023-06-19T01:23:41;11.93;;;8.70;;
77310;SDS011;66371;52.714;5.074;2023-06-19T01:26:07;10.55;;;9.40;;
77310;SDS011;66371;52.714;5.074;2023-06-19T01:28:36;11.95;;;8.65;;
77310;SDS011;66371;52.714;5.074;2023-06-19T01:34:12;12.55;;;10.23;;
77310;SDS011;66371;52.714;5.074;2023-06-19T01:36:40;11.13;;;8.45;;
77310;SDS011;66371;52.714;5.074;2023-06-19T01:39:06;11.05;;;8.43;;
77310;SDS011;66371;52.714;5.074;2023-06-19T01:41:32;9.77;;;8.48;;
77310;SDS011;66371;52.714;5.074;2023-06-19T01:43:59;9.02;;;7.25;;
77310;SDS011;66371;52.714;5.074;2023-06-19T01:46:25;11.95;;;7.88;;
77310;SDS011;66371;52.714;5.074;2023-06-19T01:48:50;7.65;;;6.85;;
77310;SDS011;66371;52.714;5.074;2023-06-19T01:51:17;7.68;;;5.68;;
77310;SDS011;66371;52.714;5.074;2023-06-19T01:53:42;5.93;;;4.88;;
77310;SDS011;66371;52.714;5.074;2023-06-19T01:56:08;6.07;;;4.97;;
77310;SDS011;66371;52.714;5.074;2023-06-19T01:58:33;7.75;;;4.90;;
77310;SDS011;66371;52.714;5.074;2023-06-19T02:00:59;5.13;;;4.10;;
77310;SDS011;66371;52.714;5.074;2023-06-19T02:03:24;3.67;;;2.77;;
77310;SDS011;66371;52.714;5.074;2023-06-19T02:05:50;5.15;;;3.03;;
77310;SDS011;66371;52.714;5.074;2023-06-19T02:08:15;4.60;;;3.15;;
77310;SDS011;66371;52.714;5.074;2023-06-19T02:10:41;3.40;;;2.67;;
77310;SDS011;66371;52.714;5.074;2023-06-19T02:13:07;3.05;;;2.58;;
77310;SDS011;66371;52.714;5.074;2023-06-19T02:15:32;6.07;;;3.38;;
77310;SDS011;66371;52.714;5.074;2023-06-19T02:17:57;3.45;;;2.65;;
77310;SDS011;66371;52.714;5.074;2023-06-19T02:20:23;6.07;;;2.63;;
77310;SDS011;66371;52.714;5.074;2023-06-19T02:22:49;4.90;;;2.35;;
77310;SDS011;66371;52.714;5.074;2023-06-19T02:25:15;3.65;;;3.22;;
77310;SDS011;66371;52.714;5.074;2023-06-19T02:27:41;4.13;;;3.67;;
77310;SDS011;66371;52.714;5.074;2023-06-19T02:30:06;4.60;;;2.78;;
77310;SDS011;66371;52.714;5.074;2023-06-19T02:32:32;3.58;;;2.40;;
77310;SDS011;66371;52.714;5.074;2023-06-19T02:34:58;3.78;;;3.25;;
77310;SDS011;66371;52.714;5.074;2023-06-19T02:37:23;3.85;;;2.88;;
77310;SDS011;66371;52.714;5.074;2023-06-19T02:39:49;4.25;;;2.10;;
77310;SDS011;66371;52.714;5.074;2023-06-19T02:42:14;4.03;;;3.22;;
77310;SDS011;66371;52.714;5.074;2023-06-19T02:44:40;5.28;;;2.45;;
77310;SDS011;66371;52.714;5.074;2023-06-19T02:47:07;3.38;;;2.88;;
77310;SDS011;66371;52.714;5.074;2023-06-19T02:49:32;3.55;;;3.22;;
77310;SDS011;66371;52.714;5.074;2023-06-19T02:51:58;4.13;;;3.58;;
77310;SDS011;66371;52.714;5.074;2023-06-19T02:54:23;3.95;;;3.58;;
77310;SDS011;66371;52.714;5.074;2023-06-19T02:56:49;3.00;;;2.33;;
77310;SDS011;66371;52.714;5.074;2023-06-19T02:59:14;5.28;;;4.28;;
77310;SDS011;66371;52.714;5.074;2023-06-19T03:01:39;4.25;;;3.25;;
77310;SDS011;66371;52.714;5.074;2023-06-19T03:04:05;3.63;;;3.08;;
77310;SDS011;66371;52.714;5.074;2023-06-19T03:06:31;7.15;;;2.65;;
77310;SDS011;66371;52.714;5.074;2023-06-19T03:08:58;5.97;;;3.58;;
77310;SDS011;66371;52.714;5.074;2023-06-19T03:11:24;5.95;;;4.30;;
77310;SDS011;66371;52.714;5.074;2023-06-19T03:13:50;6.57;;;5.20;;
77310;SDS011;66371;52.714;5.074;2023-06-19T03:16:16;9.27;;;7.40;;
77310;SDS011;66371;52.714;5.074;2023-06-19T03:18:43;8.73;;;7.63;;
77310;SDS011;66371;52.714;5.074;2023-06-19T03:21:10;10.30;;;9.25;;
77310;SDS011;66371;52.714;5.074;2023-06-19T03:23:36;11.18;;;9.10;;
77310;SDS011;66371;52.714;5.074;2023-06-19T03:26:01;16.85;;;11.02;;
77310;SDS011;66371;52.714;5.074;2023-06-19T03:28:27;16.52;;;12.88;;
77310;SDS011;66371;52.714;5.074;2023-06-19T03:30:53;18.33;;;12.52;;
77310;SDS011;66371;52.714;5.074;2023-06-19T03:33:19;17.10;;;13.43;;
77310;SDS011;66371;52.714;5.074;2023-06-19T03:35:44;15.65;;;12.18;;
77310;SDS011;66371;52.714;5.074;2023-06-19T03:38:09;14.07;;;11.47;;
77310;SDS011;66371;52.714;5.074;2023-06-19T03:40:35;12.93;;;10.38;;
77310;SDS011;66371;52.714;5.074;2023-06-19T03:43:00;13.47;;;10.93;;
77310;SDS011;66371;52.714;5.074;2023-06-19T03:45:25;11.30;;;10.07;;
77310;SDS011;66371;52.714;5.074;2023-06-19T03:47:51;11.73;;;8.95;;
77310;SDS011;66371;52.714;5.074;2023-06-19T03:50:16;14.30;;;11.47;;
77310;SDS011;66371;52.714;5.074;2023-06-19T03:52:42;12.13;;;10.63;;
77310;SDS011;66371;52.714;5.074;2023-06-19T03:55:07;12.57;;;11.25;;
77310;SDS011;66371;52.714;5.074;2023-06-19T03:57:33;12.60;;;11.27;;
77310;SDS011;66371;52.714;5.074;2023-06-19T03:59:58;14.80;;;11.73;;
77310;SDS011;66371;52.714;5.074;2023-06-19T04:02:24;15.27;;;12.15;;
77310;SDS011;66371;52.714;5.074;2023-06-19T04:04:50;15.02;;;12.00;;
77310;SDS011;66371;52.714;5.074;2023-06-19T04:07:15;16.70;;;13.35;;
77310;SDS011;66371;52.714;5.074;2023-06-19T04:09:41;17.15;;;13.05;;
77310;SDS011;66371;52.714;5.074;2023-06-19T04:12:06;16.58;;;11.93;;
77310;SDS011;66371;52.714;5.074;2023-06-19T04:14:32;14.98;;;12.13;;
77310;SDS011;66371;52.714;5.074;2023-06-19T04:16:57;17.77;;;14.65;;
77310;SDS011;66371;52.714;5.074;2023-06-19T04:19:23;17.33;;;13.88;;
77310;SDS011;66371;52.714;5.074;2023-06-19T04:21:49;19.40;;;16.20;;
77310;SDS011;66371;52.714;5.074;2023-06-19T04:24:14;21.03;;;16.77;;
77310;SDS011;66371;52.714;5.074;2023-06-19T04:26:39;21.85;;;17.95;;
77310;SDS011;66371;52.714;5.074;2023-06-19T04:29:07;31.13;;;22.50;;
77310;SDS011;66371;52.714;5.074;2023-06-19T04:31:33;29.00;;;22.08;;
77310;SDS011;66371;52.714;5.074;2023-06-19T04:33:58;27.90;;;20.00;;
77310;SDS011;66371;52.714;5.074;2023-06-19T04:36:23;31.67;;;21.42;;
77310;SDS011;66371;52.714;5.074;2023-06-19T04:38:49;32.42;;;20.98;;
77310;SDS011;66371;52.714;5.074;2023-06-19T04:41:17;30.45;;;22.25;;
77310;SDS011;66371;52.714;5.074;2023-06-19T04:43:42;32.22;;;23.98;;
77310;SDS011;66371;52.714;5.074;2023-06-19T04:46:08;28.55;;;22.77;;
77310;SDS011;66371;52.714;5.074;2023-06-19T04:48:33;30.02;;;23.58;;
77310;SDS011;66371;52.714;5.074;2023-06-19T04:51:01;32.75;;;23.50;;
77310;SDS011;66371;52.714;5.074;2023-06-19T04:53:27;32.25;;;22.77;;
77310;SDS011;66371;52.714;5.074;2023-06-19T04:55:53;37.92;;;23.63;;
77310;SDS011;66371;52.714;5.074;2023-06-19T04:58:20;36.22;;;26.17;;
77310;SDS011;66371;52.714;5.074;2023-06-19T05:00:48;43.17;;;26.10;;
77310;SDS011;66371;52.714;5.074;2023-06-19T05:03:16;41.92;;;26.75;;
77310;SDS011;66371;52.714;5.074;2023-06-19T05:05:43;40.78;;;24.52;;
77310;SDS011;66371;52.714;5.074;2023-06-19T05:08:09;42.10;;;25.95;;
77310;SDS011;66371;52.714;5.074;2023-06-19T05:10:34;41.60;;;25.05;;
77310;SDS011;66371;52.714;5.074;2023-06-19T05:13:00;42.30;;;24.73;;
77310;SDS011;66371;52.714;5.074;2023-06-19T05:15:26;45.55;;;28.20;;
77310;SDS011;66371;52.714;5.074;2023-06-19T05:17:52;42.40;;;26.23;;
77310;SDS011;66371;52.714;5.074;2023-06-19T05:20:17;50.08;;;28.08;;
77310;SDS011;66371;52.714;5.074;2023-06-19T05:22:43;54.13;;;28.88;;
77310;SDS011;66371;52.714;5.074;2023-06-19T05:25:08;52.92;;;28.20;;
77310;SDS011;66371;52.714;5.074;2023-06-19T05:27:34;55.65;;;30.25;;
77310;SDS011;66371;52.714;5.074;2023-06-19T05:29:59;64.97;;;34.05;;
77310;SDS011;66371;52.714;5.074;2023-06-19T05:32:25;64.55;;;33.42;;
77310;SDS011;66371;52.714;5.074;2023-06-19T05:34:50;67.15;;;33.08;;
77310;SDS011;66371;52.714;5.074;2023-06-19T05:37:16;55.37;;;29.37;;
77310;SDS011;66371;52.714;5.074;2023-06-19T05:39:42;62.65;;;33.78;;
77310;SDS011;66371;52.714;5.074;2023-06-19T05:42:08;55.58;;;29.48;;
77310;SDS011;66371;52.714;5.074;2023-06-19T05:44:33;52.75;;;28.25;;
77310;SDS011;66371;52.714;5.074;2023-06-19T05:46:58;54.57;;;30.50;;
77310;SDS011;66371;52.714;5.074;2023-06-19T05:49:24;44.00;;;24.60;;
77310;SDS011;66371;52.714;5.074;2023-06-19T05:51:49;47.07;;;26.03;;
77310;SDS011;66371;52.714;5.074;2023-06-19T05:54:14;45.33;;;24.00;;
77310;SDS011;66371;52.714;5.074;2023-06-19T05:56:40;46.78;;;23.25;;
77310;SDS011;66371;52.714;5.074;2023-06-19T05:59:06;41.95;;;23.48;;
77310;SDS011;66371;52.714;5.074;2023-06-19T06:01:31;38.90;;;23.37;;
77310;SDS011;66371;52.714;5.074;2023-06-19T06:03:56;36.92;;;23.35;;
77310;SDS011;66371;52.714;5.074;2023-06-19T06:06:22;33.08;;;20.23;;
77310;SDS011;66371;52.714;5.074;2023-06-19T06:08:48;30.95;;;20.60;;
77310;SDS011;66371;52.714;5.074;2023-06-19T06:11:14;27.92;;;18.02;;
77310;SDS011;66371;52.714;5.074;2023-06-19T06:13:39;25.60;;;17.70;;
77310;SDS011;66371;52.714;5.074;2023-06-19T06:16:05;25.17;;;17.77;;
77310;SDS011;66371;52.714;5.074;2023-06-19T06:18:30;21.73;;;15.02;;
77310;SDS011;66371;52.714;5.074;2023-06-19T06:20:56;23.50;;;14.60;;
77310;SDS011;66371;52.714;5.074;2023-06-19T06:23:21;16.73;;;12.90;;
77310;SDS011;66371;52.714;5.074;2023-06-19T06:25:47;19.58;;;11.98;;
77310;SDS011;66371;52.714;5.074;2023-06-19T06:28:13;20.95;;;12.75;;
77310;SDS011;66371;52.714;5.074;2023-06-19T06:30:39;21.15;;;12.93;;
77310;SDS011;66371;52.714;5.074;2023-06-19T06:33:04;15.95;;;12.98;;
77310;SDS011;66371;52.714;5.074;2023-06-19T06:35:30;17.88;;;12.68;;
77310;SDS011;66371;52.714;5.074;2023-06-19T06:37:55;13.88;;;11.10;;
77310;SDS011;66371;52.714;5.074;2023-06-19T06:40:20;16.42;;;12.52;;
77310;SDS011;66371;52.714;5.074;2023-06-19T06:42:46;15.52;;;12.27;;
77310;SDS011;66371;52.714;5.074;2023-06-19T06:45:12;16.45;;;12.60;;
77310;SDS011;66371;52.714;5.074;2023-06-19T06:47:38;19.00;;;13.10;;
77310;SDS011;66371;52.714;5.074;2023-06-19T06:50:05;15.65;;;12.57;;
77310;SDS011;66371;52.714;5.074;2023-06-19T06:52:31;16.02;;;11.20;;
77310;SDS011;66371;52.714;5.074;2023-06-19T06:54:57;14.07;;;11.40;;
77310;SDS011;66371;52.714;5.074;2023-06-19T06:57:22;17.70;;;13.50;;
77310;SDS011;66371;52.714;5.074;2023-06-19T06:59:55;18.92;;;13.80;;
77310;SDS011;66371;52.714;5.074;2023-06-19T07:02:20;20.38;;;12.95;;
77310;SDS011;66371;52.714;5.074;2023-06-19T07:04:45;19.88;;;13.60;;
77310;SDS011;66371;52.714;5.074;2023-06-19T07:07:11;18.63;;;12.38;;
77310;SDS011;66371;52.714;5.074;2023-06-19T07:09:36;17.08;;;12.55;;
77310;SDS011;66371;52.714;5.074;2023-06-19T07:12:02;24.52;;;15.02;;
77310;SDS011;66371;52.714;5.074;2023-06-19T07:14:30;20.00;;;14.20;;
77310;SDS011;66371;52.714;5.074;2023-06-19T07:16:55;21.50;;;13.90;;
77310;SDS011;66371;52.714;5.074;2023-06-19T07:19:21;21.02;;;14.82;;
77310;SDS011;66371;52.714;5.074;2023-06-19T07:22:45;17.95;;;15.05;;
77310;SDS011;66371;52.714;5.074;2023-06-19T07:25:54;16.63;;;14.45;;
77310;SDS011;66371;52.714;5.074;2023-06-19T07:28:20;21.13;;;15.02;;
77310;SDS011;66371;52.714;5.074;2023-06-19T07:30:45;23.63;;;14.23;;
77310;SDS011;66371;52.714;5.074;2023-06-19T07:33:12;19.90;;;14.40;;
77310;SDS011;66371;52.714;5.074;2023-06-19T07:35:38;20.67;;;13.35;;
77310;SDS011;66371;52.714;5.074;2023-06-19T07:38:03;15.97;;;13.30;;
77310;SDS011;66371;52.714;5.074;2023-06-19T07:40:29;20.35;;;13.57;;
77310;SDS011;66371;52.714;5.074;2023-06-19T07:42:54;19.63;;;13.07;;
77310;SDS011;66371;52.714;5.074;2023-06-19T07:45:20;17.50;;;12.73;;
77310;SDS011;66371;52.714;5.074;2023-06-19T07:47:53;16.23;;;14.35;;
77310;SDS011;66371;52.714;5.074;2023-06-19T07:50:20;17.00;;;12.95;;
77310;SDS011;66371;52.714;5.074;2023-06-19T07:52:45;17.15;;;13.48;;
77310;SDS011;66371;52.714;5.074;2023-06-19T07:55:10;21.40;;;13.47;;
77310;SDS011;66371;52.714;5.074;2023-06-19T07:57:36;17.77;;;13.15;;
77310;SDS011;66371;52.714;5.074;2023-06-19T08:00:04;22.95;;;16.05;;
77310;SDS011;66371;52.714;5.074;2023-06-19T08:02:35;17.00;;;14.65;;
77310;SDS011;66371;52.714;5.074;2023-06-19T08:05:01;20.60;;;14.48;;
77310;SDS011;66371;52.714;5.074;2023-06-19T08:07:27;25.20;;;16.85;;
77310;SDS011;66371;52.714;5.074;2023-06-19T08:09:52;24.55;;;15.85;;
77310;SDS011;66371;52.714;5.074;2023-06-19T08:12:17;21.33;;;16.30;;
77310;SDS011;66371;52.714;5.074;2023-06-19T08:14:43;21.98;;;16.65;;
77310;SDS011;66371;52.714;5.074;2023-06-19T08:17:08;25.10;;;16.50;;
77310;SDS011;66371;52.714;5.074;2023-06-19T08:19:34;26.40;;;17.17;;
77310;SDS011;66371;52.714;5.074;2023-06-19T08:21:59;25.05;;;16.70;;
77310;SDS011;66371;52.714;5.074;2023-06-19T08:24:25;22.33;;;16.45;;
77310;SDS011;66371;52.714;5.074;2023-06-19T08:26:50;27.13;;;18.30;;
77310;SDS011;66371;52.714;5.074;2023-06-19T08:29:17;24.85;;;16.50;;
77310;SDS011;66371;52.714;5.074;2023-06-19T08:31:43;29.23;;;18.50;;
77310;SDS011;66371;52.714;5.074;2023-06-19T08:34:09;24.75;;;17.20;;
77310;SDS011;66371;52.714;5.074;2023-06-19T08:36:35;24.55;;;16.08;;
77310;SDS011;66371;52.714;5.074;2023-06-19T08:39:01;20.55;;;16.05;;
77310;SDS011;66371;52.714;5.074;2023-06-19T08:41:27;25.48;;;16.55;;
77310;SDS011;66371;52.714;5.074;2023-06-19T08:43:53;25.13;;;17.45;;
77310;SDS011;66371;52.714;5.074;2023-06-19T08:46:19;25.50;;;16.52;;
77310;SDS011;66371;52.714;5.074;2023-06-19T08:48:45;23.35;;;15.63;;
77310;SDS011;66371;52.714;5.074;2023-06-19T08:51:12;21.10;;;16.38;;
77310;SDS011;66371;52.714;5.074;2023-06-19T08:53:45;23.30;;;16.55;;
77310;SDS011;66371;52.714;5.074;2023-06-19T08:56:11;23.17;;;17.25;;
77310;SDS011;66371;52.714;5.074;2023-06-19T08:58:37;23.90;;;16.45;;
77310;SDS011;66371;52.714;5.074;2023-06-19T09:01:03;21.63;;;15.90;;
77310;SDS011;66371;52.714;5.074;2023-06-19T09:03:29;21.73;;;16.35;;
77310;SDS011;66371;52.714;5.074;2023-06-19T09:05:54;24.40;;;16.10;;
77310;SDS011;66371;52.714;5.074;2023-06-19T09:08:20;26.50;;;18.92;;
77310;SDS011;66371;52.714;5.074;2023-06-19T09:10:56;29.10;;;17.77;;
77310;SDS011;66371;52.714;5.074;2023-06-19T09:13:23;27.27;;;17.80;;
77310;SDS011;66371;52.714;5.074;2023-06-19T09:15:56;26.63;;;16.65;;
77310;SDS011;66371;52.714;5.074;2023-06-19T09:18:23;31.55;;;19.27;;
77310;SDS011;66371;52.714;5.074;2023-06-19T09:20:51;31.25;;;18.95;;
77310;SDS011;66371;52.714;5.074;2023-06-19T09:23:19;26.75;;;19.48;;
77310;SDS011;66371;52.714;5.074;2023-06-19T09:28:18;25.63;;;16.67;;
77310;SDS011;66371;52.714;5.074;2023-06-19T09:33:29;27.88;;;18.92;;
77310;SDS011;66371;52.714;5.074;2023-06-19T09:35:56;22.52;;;16.13;;
77310;SDS011;66371;52.714;5.074;2023-06-19T09:38:24;34.22;;;18.50;;
77310;SDS011;66371;52.714;5.074;2023-06-19T09:40:51;28.25;;;16.88;;
77310;SDS011;66371;52.714;5.074;2023-06-19T09:43:18;24.25;;;14.88;;
77310;SDS011;66371;52.714;5.074;2023-06-19T09:45:48;22.48;;;14.75;;
77310;SDS011;66371;52.714;5.074;2023-06-19T09:48:18;22.67;;;15.50;;
77310;SDS011;66371;52.714;5.074;2023-06-19T09:50:47;23.10;;;15.27;;
77310;SDS011;66371;52.714;5.074;2023-06-19T09:53:15;27.90;;;15.50;;
77310;SDS011;66371;52.714;5.074;2023-06-19T09:55:42;21.45;;;15.40;;
77310;SDS011;66371;52.714;5.074;2023-06-19T09:58:08;21.92;;;14.38;;
77310;SDS011;66371;52.714;5.074;2023-06-19T10:00:34;21.63;;;14.32;;
77310;SDS011;66371;52.714;5.074;2023-06-19T10:03:02;18.45;;;13.90;;
77310;SDS011;66371;52.714;5.074;2023-06-19T10:05:30;21.83;;;14.77;;
77310;SDS011;66371;52.714;5.074;2023-06-19T10:08:01;19.45;;;13.80;;
77310;SDS011;66371;52.714;5.074;2023-06-19T10:10:29;17.50;;;13.88;;
77310;SDS011;66371;52.714;5.074;2023-06-19T10:12:55;17.75;;;12.85;;
77310;SDS011;66371;52.714;5.074;2023-06-19T10:15:26;17.00;;;13.13;;
77310;SDS011;66371;52.714;5.074;2023-06-19T10:20:28;21.35;;;14.98;;
77310;SDS011;66371;52.714;5.074;2023-06-19T10:25:27;17.10;;;13.30;;
77310;SDS011;66371;52.714;5.074;2023-06-19T10:27:54;18.85;;;14.73;;
77310;SDS011;66371;52.714;5.074;2023-06-19T10:30:20;21.42;;;15.27;;
77310;SDS011;66371;52.714;5.074;2023-06-19T10:32:48;18.38;;;13.15;;
77310;SDS011;66371;52.714;5.074;2023-06-19T10:35:14;20.65;;;13.20;;
77310;SDS011;66371;52.714;5.074;2023-06-19T10:37:42;17.15;;;14.15;;
77310;SDS011;66371;52.714;5.074;2023-06-19T10:40:10;17.15;;;12.32;;
77310;SDS011;66371;52.714;5.074;2023-06-19T10:42:37;18.17;;;13.52;;
77310;SDS011;66371;52.714;5.074;2023-06-19T10:45:04;15.55;;;12.23;;
77310;SDS011;66371;52.714;5.074;2023-06-19T10:47:31;15.85;;;11.85;;
77310;SDS011;66371;52.714;5.074;2023-06-19T10:49:57;18.55;;;10.80;;
77310;SDS011;66371;52.714;5.074;2023-06-19T10:52:23;16.77;;;12.35;;
77310;SDS011;66371;52.714;5.074;2023-06-19T10:54:55;16.27;;;11.43;;
77310;SDS011;66371;52.714;5.074;2023-06-19T10:57:30;21.02;;;12.63;;
77310;SDS011;66371;52.714;5.074;2023-06-19T10:59:57;16.55;;;11.32;;
77310;SDS011;66371;52.714;5.074;2023-06-19T11:02:25;17.08;;;12.40;;
77310;SDS011;66371;52.714;5.074;2023-06-19T11:04:51;15.82;;;12.73;;
77310;SDS011;66371;52.714;5.074;2023-06-19T11:07:20;14.80;;;11.65;;
77310;SDS011;66371;52.714;5.074;2023-06-19T11:09:48;16.08;;;11.38;;
77310;SDS011;66371;52.714;5.074;2023-06-19T11:12:20;17.00;;;13.05;;
77310;SDS011;66371;52.714;5.074;2023-06-19T11:14:47;18.67;;;11.63;;
77310;SDS011;66371;52.714;5.074;2023-06-19T11:17:13;15.63;;;11.02;;
77310;SDS011;66371;52.714;5.074;2023-06-19T11:19:39;12.57;;;10.05;;
77310;SDS011;66371;52.714;5.074;2023-06-19T11:22:07;17.30;;;11.35;;
77310;SDS011;66371;52.714;5.074;2023-06-19T11:24:33;15.95;;;9.98;;
77310;SDS011;66371;52.714;5.074;2023-06-19T11:26:58;15.65;;;10.07;;
77310;SDS011;66371;52.714;5.074;2023-06-19T11:29:33;18.77;;;10.60;;
77310;SDS011;66371;52.714;5.074;2023-06-19T11:32:09;15.07;;;10.20;;
77310;SDS011;66371;52.714;5.074;2023-06-19T11:34:38;13.35;;;8.88;;
77310;SDS011;66371;52.714;5.074;2023-06-19T11:37:13;19.13;;;11.57;;
77310;SDS011;66371;52.714;5.074;2023-06-19T11:39:39;14.93;;;10.02;;
77310;SDS011;66371;52.714;5.074;2023-06-19T11:42:06;14.43;;;10.13;;
77310;SDS011;66371;52.714;5.074;2023-06-19T11:44:32;16.88;;;10.55;;
77310;SDS011;66371;52.714;5.074;2023-06-19T11:46:58;11.43;;;9.73;;
77310;SDS011;66371;52.714;5.074;2023-06-19T11:49:24;17.20;;;9.98;;
77310;SDS011;66371;52.714;5.074;2023-06-19T11:51:50;15.40;;;9.85;;
77310;SDS011;66371;52.714;5.074;2023-06-19T11:54:15;15.50;;;10.93;;
77310;SDS011;66371;52.714;5.074;2023-06-19T11:56:40;13.80;;;9.80;;
77310;SDS011;66371;52.714;5.074;2023-06-19T11:59:06;15.48;;;10.35;;
77310;SDS011;66371;52.714;5.074;2023-06-19T12:01:32;14.55;;;11.40;;
77310;SDS011;66371;52.714;5.074;2023-06-19T12:03:59;14.00;;;11.68;;
77310;SDS011;66371;52.714;5.074;2023-06-19T12:06:25;14.05;;;9.18;;
77310;SDS011;66371;52.714;5.074;2023-06-19T12:08:51;11.38;;;8.43;;
77310;SDS011;66371;52.714;5.074;2023-06-19T12:11:16;11.35;;;8.80;;
77310;SDS011;66371;52.714;5.074;2023-06-19T12:13:42;14.53;;;8.77;;
77310;SDS011;66371;52.714;5.074;2023-06-19T12:16:08;12.48;;;8.70;;
77310;SDS011;66371;52.714;5.074;2023-06-19T12:18:35;13.32;;;8.93;;
77310;SDS011;66371;52.714;5.074;2023-06-19T12:21:00;18.45;;;10.55;;
77310;SDS011;66371;52.714;5.074;2023-06-19T12:23:26;14.60;;;9.18;;
77310;SDS011;66371;52.714;5.074;2023-06-19T12:25:51;16.27;;;10.10;;
77310;SDS011;66371;52.714;5.074;2023-06-19T12:28:17;13.55;;;9.65;;
77310;SDS011;66371;52.714;5.074;2023-06-19T12:30:44;15.88;;;9.02;;
77310;SDS011;66371;52.714;5.074;2023-06-19T12:33:10;13.07;;;9.75;;
77310;SDS011;66371;52.714;5.074;2023-06-19T12:35:38;12.05;;;8.80;;
77310;SDS011;66371;52.714;5.074;2023-06-19T12:38:05;16.77;;;8.80;;
77310;SDS011;66371;52.714;5.074;2023-06-19T12:40:31;15.80;;;8.50;;
77310;SDS011;66371;52.714;5.074;2023-06-19T12:42:57;12.38;;;9.43;;
77310;SDS011;66371;52.714;5.074;2023-06-19T12:45:23;14.55;;;9.77;;
77310;SDS011;66371;52.714;5.074;2023-06-19T12:47:48;12.05;;;7.57;;
77310;SDS011;66371;52.714;5.074;2023-06-19T12:50:14;13.27;;;8.63;;
77310;SDS011;66371;52.714;5.074;2023-06-19T12:52:39;13.18;;;9.25;;
77310;SDS011;66371;52.714;5.074;2023-06-19T12:55:04;10.77;;;7.03;;
77310;SDS011;66371;52.714;5.074;2023-06-19T12:57:30;9.52;;;7.53;;
77310;SDS011;66371;52.714;5.074;2023-06-19T12:59:55;10.25;;;7.85;;
77310;SDS011;66371;52.714;5.074;2023-06-19T13:02:21;9.93;;;7.70;;
77310;SDS011;66371;52.714;5.074;2023-06-19T13:04:46;11.23;;;8.33;;
77310;SDS011;66371;52.714;5.074;2023-06-19T13:07:11;10.40;;;7.23;;
77310;SDS011;66371;52.714;5.074;2023-06-19T13:09:37;8.73;;;7.53;;
77310;SDS011;66371;52.714;5.074;2023-06-19T13:12:03;12.43;;;7.72;;
77310;SDS011;66371;52.714;5.074;2023-06-19T13:14:28;8.10;;;6.97;;
77310;SDS011;66371;52.714;5.074;2023-06-19T13:16:54;14.32;;;8.63;;
77310;SDS011;66371;52.714;5.074;2023-06-19T13:19:22;12.55;;;7.75;;
77310;SDS011;66371;52.714;5.074;2023-06-19T13:21:47;9.13;;;6.82;;
77310;SDS011;66371;52.714;5.074;2023-06-19T13:24:13;9.57;;;6.88;;
77310;SDS011;66371;52.714;5.074;2023-06-19T13:26:38;9.02;;;6.88;;
77310;SDS011;66371;52.714;5.074;2023-06-19T13:29:04;8.57;;;6.72;;
77310;SDS011;66371;52.714;5.074;2023-06-19T13:31:29;11.63;;;6.70;;
77310;SDS011;66371;52.714;5.074;2023-06-19T13:33:55;9.60;;;6.53;;
77310;SDS011;66371;52.714;5.074;2023-06-19T13:36:20;9.23;;;5.68;;
77310;SDS011;66371;52.714;5.074;2023-06-19T13:38:46;8.20;;;5.85;;
77310;SDS011;66371;52.714;5.074;2023-06-19T13:41:12;6.75;;;5.28;;
77310;SDS011;66371;52.714;5.074;2023-06-19T13:43:37;8.05;;;4.55;;
77310;SDS011;66371;52.714;5.074;2023-06-19T13:46:05;7.15;;;5.68;;
77310;SDS011;66371;52.714;5.074;2023-06-19T13:48:31;8.05;;;5.95;;
77310;SDS011;66371;52.714;5.074;2023-06-19T13:50:56;7.28;;;4.93;;
77310;SDS011;66371;52.714;5.074;2023-06-19T13:53:23;8.00;;;5.30;;
77310;SDS011;66371;52.714;5.074;2023-06-19T13:55:49;6.38;;;4.78;;
77310;SDS011;66371;52.714;5.074;2023-06-19T13:58:15;9.27;;;5.07;;
77310;SDS011;66371;52.714;5.074;2023-06-19T14:00:40;8.03;;;5.43;;
77310;SDS011;66371;52.714;5.074;2023-06-19T14:03:05;6.93;;;4.45;;
77310;SDS011;66371;52.714;5.074;2023-06-19T14:05:32;6.47;;;4.82;;
77310;SDS011;66371;52.714;5.074;2023-06-19T14:08:01;8.25;;;5.68;;
77310;SDS011;66371;52.714;5.074;2023-06-19T14:10:28;7.03;;;4.53;;
77310;SDS011;66371;52.714;5.074;2023-06-19T14:12:53;7.85;;;5.47;;
77310;SDS011;66371;52.714;5.074;2023-06-19T14:15:19;7.75;;;5.05;;
77310;SDS011;66371;52.714;5.074;2023-06-19T14:17:44;5.97;;;3.90;;
77310;SDS011;66371;52.714;5.074;2023-06-19T14:20:10;7.40;;;4.87;;
77310;SDS011;66371;52.714;5.074;2023-06-19T14:22:36;9.25;;;5.40;;
77310;SDS011;66371;52.714;5.074;2023-06-19T14:25:02;8.20;;;5.43;;
77310;SDS011;66371;52.714;5.074;2023-06-19T14:27:27;6.93;;;4.20;;
77310;SDS011;66371;52.714;5.074;2023-06-19T14:29:54;7.22;;;3.90;;
77310;SDS011;66371;52.714;5.074;2023-06-19T14:32:19;7.18;;;4.85;;
77310;SDS011;66371;52.714;5.074;2023-06-19T14:34:48;6.35;;;4.82;;
77310;SDS011;66371;52.714;5.074;2023-06-19T14:37:14;6.80;;;5.50;;
77310;SDS011;66371;52.714;5.074;2023-06-19T14:39:39;7.60;;;4.80;;
77310;SDS011;66371;52.714;5.074;2023-06-19T14:42:05;7.10;;;4.72;;
77310;SDS011;66371;52.714;5.074;2023-06-19T14:44:30;10.77;;;4.63;;